Bonita Springs, Florida
Current Conditions -  °F | °C
As of 1:53 PM on Tuesday 21 Oct 2014 (Local Time) from KRSW Reporting Station
Clear Clear  
Wind Chill: 78°   Ceiling: Unl
Heat Index: 80°   Visibility: 10mi
Dew Point: 70°   Wind: 17mph
Humidity: 76%   Direction: 210°SSW
Pressure: 29.94"   Gusts: NA
Location:  26.34°N, 81.78°W
Report Text: KRSW 211753Z 21015KT 10SM CLR 26/21 A2994 RMK AO2 RAB17E38 SLP136 P0009 60009 T02560211 10272 20217 58012
Loading
Personal Weather Stations






























Interactive Weather Map
Tropical Storm Tracking
New forecast layout! Learn more

10-Day Weather Forecast

Advertisements
Track Severe Weather on mobile